sensor_id;sensor_type;location;lat;lon;timestamp;P1;durP1;ratioP1;P2;durP2;ratioP2
51824;SDS011;37879;52.986;6.282;2022-07-26T00:01:34;11.88;;;2.72;;
51824;SDS011;37879;52.986;6.282;2022-07-26T00:04:00;13.65;;;3.30;;
51824;SDS011;37879;52.986;6.282;2022-07-26T00:06:27;15.43;;;3.85;;
51824;SDS011;37879;52.986;6.282;2022-07-26T00:08:53;14.98;;;4.03;;
51824;SDS011;37879;52.986;6.282;2022-07-26T00:11:20;11.45;;;3.25;;
51824;SDS011;37879;52.986;6.282;2022-07-26T00:13:46;8.13;;;3.20;;
51824;SDS011;37879;52.986;6.282;2022-07-26T00:16:12;10.27;;;3.00;;
51824;SDS011;37879;52.986;6.282;2022-07-26T00:18:39;11.25;;;3.00;;
51824;SDS011;37879;52.986;6.282;2022-07-26T00:21:05;10.77;;;2.55;;
51824;SDS011;37879;52.986;6.282;2022-07-26T00:23:31;12.18;;;3.20;;
51824;SDS011;37879;52.986;6.282;2022-07-26T00:25:57;10.38;;;3.67;;
51824;SDS011;37879;52.986;6.282;2022-07-26T00:28:23;10.68;;;3.33;;
51824;SDS011;37879;52.986;6.282;2022-07-26T00:30:50;11.23;;;3.83;;
51824;SDS011;37879;52.986;6.282;2022-07-26T00:33:17;12.18;;;3.78;;
51824;SDS011;37879;52.986;6.282;2022-07-26T00:35:43;10.45;;;2.97;;
51824;SDS011;37879;52.986;6.282;2022-07-26T00:38:09;12.77;;;3.00;;
51824;SDS011;37879;52.986;6.282;2022-07-26T00:40:35;9.65;;;2.65;;
51824;SDS011;37879;52.986;6.282;2022-07-26T00:43:01;11.95;;;3.10;;
51824;SDS011;37879;52.986;6.282;2022-07-26T00:45:28;19.13;;;4.35;;
51824;SDS011;37879;52.986;6.282;2022-07-26T00:47:54;10.02;;;2.53;;
51824;SDS011;37879;52.986;6.282;2022-07-26T00:50:20;9.95;;;2.10;;
51824;SDS011;37879;52.986;6.282;2022-07-26T00:52:47;9.30;;;2.47;;
51824;SDS011;37879;52.986;6.282;2022-07-26T00:55:14;8.77;;;2.63;;
51824;SDS011;37879;52.986;6.282;2022-07-26T00:57:40;9.07;;;3.03;;
51824;SDS011;37879;52.986;6.282;2022-07-26T01:00:11;8.73;;;2.38;;
51824;SDS011;37879;52.986;6.282;2022-07-26T01:02:38;12.60;;;3.30;;
51824;SDS011;37879;52.986;6.282;2022-07-26T01:05:05;8.38;;;2.10;;
51824;SDS011;37879;52.986;6.282;2022-07-26T01:07:31;7.55;;;2.50;;
51824;SDS011;37879;52.986;6.282;2022-07-26T01:09:57;8.38;;;2.47;;
51824;SDS011;37879;52.986;6.282;2022-07-26T01:12:23;7.13;;;2.17;;
51824;SDS011;37879;52.986;6.282;2022-07-26T01:14:49;9.95;;;2.80;;
51824;SDS011;37879;52.986;6.282;2022-07-26T01:17:16;7.78;;;2.10;;
51824;SDS011;37879;52.986;6.282;2022-07-26T01:19:42;8.93;;;2.80;;
51824;SDS011;37879;52.986;6.282;2022-07-26T01:22:08;7.90;;;2.30;;
51824;SDS011;37879;52.986;6.282;2022-07-26T01:24:34;6.03;;;2.13;;
51824;SDS011;37879;52.986;6.282;2022-07-26T01:27:00;3.83;;;1.40;;
51824;SDS011;37879;52.986;6.282;2022-07-26T01:29:26;7.05;;;2.08;;
51824;SDS011;37879;52.986;6.282;2022-07-26T01:31:52;6.47;;;2.40;;
51824;SDS011;37879;52.986;6.282;2022-07-26T01:34:18;4.38;;;1.42;;
51824;SDS011;37879;52.986;6.282;2022-07-26T01:36:45;4.00;;;1.40;;
51824;SDS011;37879;52.986;6.282;2022-07-26T01:39:11;3.92;;;1.67;;
51824;SDS011;37879;52.986;6.282;2022-07-26T01:41:38;5.60;;;1.70;;
51824;SDS011;37879;52.986;6.282;2022-07-26T01:44:05;2.67;;;1.52;;
51824;SDS011;37879;52.986;6.282;2022-07-26T01:46:31;8.65;;;2.03;;
51824;SDS011;37879;52.986;6.282;2022-07-26T01:48:57;4.35;;;1.75;;
51824;SDS011;37879;52.986;6.282;2022-07-26T01:51:25;4.80;;;1.80;;
51824;SDS011;37879;52.986;6.282;2022-07-26T01:53:51;5.30;;;1.90;;
51824;SDS011;37879;52.986;6.282;2022-07-26T01:56:17;6.45;;;2.03;;
51824;SDS011;37879;52.986;6.282;2022-07-26T01:58:44;5.93;;;2.00;;
51824;SDS011;37879;52.986;6.282;2022-07-26T02:01:10;3.42;;;2.03;;
51824;SDS011;37879;52.986;6.282;2022-07-26T02:03:36;6.18;;;1.75;;
51824;SDS011;37879;52.986;6.282;2022-07-26T02:06:04;4.63;;;2.15;;
51824;SDS011;37879;52.986;6.282;2022-07-26T02:08:30;4.70;;;2.53;;
51824;SDS011;37879;52.986;6.282;2022-07-26T02:10:56;5.10;;;2.72;;
51824;SDS011;37879;52.986;6.282;2022-07-26T02:13:29;3.78;;;1.85;;
51824;SDS011;37879;52.986;6.282;2022-07-26T02:15:55;3.67;;;2.80;;
51824;SDS011;37879;52.986;6.282;2022-07-26T02:18:25;7.78;;;2.40;;
51824;SDS011;37879;52.986;6.282;2022-07-26T02:20:52;4.35;;;2.55;;
51824;SDS011;37879;52.986;6.282;2022-07-26T02:23:18;5.32;;;2.05;;
51824;SDS011;37879;52.986;6.282;2022-07-26T02:25:44;3.85;;;2.65;;
51824;SDS011;37879;52.986;6.282;2022-07-26T02:28:12;8.05;;;3.00;;
51824;SDS011;37879;52.986;6.282;2022-07-26T02:30:38;8.85;;;2.78;;
51824;SDS011;37879;52.986;6.282;2022-07-26T02:33:04;8.50;;;2.90;;
51824;SDS011;37879;52.986;6.282;2022-07-26T02:35:30;4.25;;;2.60;;
51824;SDS011;37879;52.986;6.282;2022-07-26T02:38:00;3.55;;;2.65;;
51824;SDS011;37879;52.986;6.282;2022-07-26T02:40:26;7.78;;;2.85;;
51824;SDS011;37879;52.986;6.282;2022-07-26T02:42:53;6.07;;;2.88;;
51824;SDS011;37879;52.986;6.282;2022-07-26T02:45:19;5.60;;;2.45;;
51824;SDS011;37879;52.986;6.282;2022-07-26T02:47:45;4.40;;;2.67;;
51824;SDS011;37879;52.986;6.282;2022-07-26T02:50:12;6.22;;;2.85;;
51824;SDS011;37879;52.986;6.282;2022-07-26T02:52:40;3.92;;;1.95;;
51824;SDS011;37879;52.986;6.282;2022-07-26T02:55:06;5.03;;;2.53;;
51824;SDS011;37879;52.986;6.282;2022-07-26T02:57:32;10.02;;;2.28;;
51824;SDS011;37879;52.986;6.282;2022-07-26T02:59:59;5.97;;;1.85;;
51824;SDS011;37879;52.986;6.282;2022-07-26T03:02:25;6.10;;;1.65;;
51824;SDS011;37879;52.986;6.282;2022-07-26T03:04:51;4.22;;;1.60;;
51824;SDS011;37879;52.986;6.282;2022-07-26T03:07:17;3.92;;;2.08;;
51824;SDS011;37879;52.986;6.282;2022-07-26T03:09:43;5.32;;;1.73;;
51824;SDS011;37879;52.986;6.282;2022-07-26T03:12:09;4.18;;;1.20;;
51824;SDS011;37879;52.986;6.282;2022-07-26T03:14:35;5.22;;;1.77;;
51824;SDS011;37879;52.986;6.282;2022-07-26T03:17:01;2.80;;;1.38;;
51824;SDS011;37879;52.986;6.282;2022-07-26T03:19:27;7.80;;;1.90;;
51824;SDS011;37879;52.986;6.282;2022-07-26T03:21:53;6.75;;;2.28;;
51824;SDS011;37879;52.986;6.282;2022-07-26T03:24:19;6.80;;;1.92;;
51824;SDS011;37879;52.986;6.282;2022-07-26T03:26:45;5.38;;;2.10;;
51824;SDS011;37879;52.986;6.282;2022-07-26T03:29:12;5.70;;;2.00;;
51824;SDS011;37879;52.986;6.282;2022-07-26T03:31:38;8.05;;;1.98;;
51824;SDS011;37879;52.986;6.282;2022-07-26T03:34:04;5.05;;;1.70;;
51824;SDS011;37879;52.986;6.282;2022-07-26T03:36:30;5.57;;;1.65;;
51824;SDS011;37879;52.986;6.282;2022-07-26T03:38:56;4.30;;;1.73;;
51824;SDS011;37879;52.986;6.282;2022-07-26T03:41:22;5.40;;;1.85;;
51824;SDS011;37879;52.986;6.282;2022-07-26T03:43:48;7.82;;;1.73;;
51824;SDS011;37879;52.986;6.282;2022-07-26T03:46:14;6.50;;;1.48;;
51824;SDS011;37879;52.986;6.282;2022-07-26T03:48:40;5.13;;;1.80;;
51824;SDS011;37879;52.986;6.282;2022-07-26T03:51:07;5.30;;;1.08;;
51824;SDS011;37879;52.986;6.282;2022-07-26T03:53:33;6.53;;;1.50;;
51824;SDS011;37879;52.986;6.282;2022-07-26T03:55:59;10.02;;;1.58;;
51824;SDS011;37879;52.986;6.282;2022-07-26T03:58:44;4.70;;;1.47;;
51824;SDS011;37879;52.986;6.282;2022-07-26T04:01:10;9.80;;;1.60;;
51824;SDS011;37879;52.986;6.282;2022-07-26T04:03:36;6.13;;;1.23;;
51824;SDS011;37879;52.986;6.282;2022-07-26T04:06:03;6.63;;;1.58;;
51824;SDS011;37879;52.986;6.282;2022-07-26T04:08:29;8.95;;;1.55;;
51824;SDS011;37879;52.986;6.282;2022-07-26T04:10:55;5.95;;;1.40;;
51824;SDS011;37879;52.986;6.282;2022-07-26T04:13:21;4.10;;;1.00;;
51824;SDS011;37879;52.986;6.282;2022-07-26T04:15:48;4.53;;;1.52;;
51824;SDS011;37879;52.986;6.282;2022-07-26T04:18:14;4.47;;;0.95;;
51824;SDS011;37879;52.986;6.282;2022-07-26T04:20:40;2.85;;;0.93;;
51824;SDS011;37879;52.986;6.282;2022-07-26T04:23:07;5.50;;;1.45;;
51824;SDS011;37879;52.986;6.282;2022-07-26T04:25:33;5.53;;;1.27;;
51824;SDS011;37879;52.986;6.282;2022-07-26T04:28:00;8.02;;;1.55;;
51824;SDS011;37879;52.986;6.282;2022-07-26T04:30:26;7.25;;;1.25;;
51824;SDS011;37879;52.986;6.282;2022-07-26T04:32:53;5.53;;;1.00;;
51824;SDS011;37879;52.986;6.282;2022-07-26T04:35:19;3.72;;;1.27;;
51824;SDS011;37879;52.986;6.282;2022-07-26T04:37:45;6.45;;;0.88;;
51824;SDS011;37879;52.986;6.282;2022-07-26T04:40:16;3.65;;;1.10;;
51824;SDS011;37879;52.986;6.282;2022-07-26T04:42:42;3.55;;;0.93;;
51824;SDS011;37879;52.986;6.282;2022-07-26T04:45:08;2.78;;;0.85;;
51824;SDS011;37879;52.986;6.282;2022-07-26T04:47:36;2.97;;;1.08;;
51824;SDS011;37879;52.986;6.282;2022-07-26T04:50:03;4.65;;;0.80;;
51824;SDS011;37879;52.986;6.282;2022-07-26T04:52:29;6.75;;;1.13;;
51824;SDS011;37879;52.986;6.282;2022-07-26T04:54:55;1.58;;;0.63;;
51824;SDS011;37879;52.986;6.282;2022-07-26T04:57:21;6.25;;;0.90;;
51824;SDS011;37879;52.986;6.282;2022-07-26T04:59:47;5.00;;;0.85;;
51824;SDS011;37879;52.986;6.282;2022-07-26T05:02:13;3.78;;;0.65;;
51824;SDS011;37879;52.986;6.282;2022-07-26T05:04:40;3.65;;;0.60;;
51824;SDS011;37879;52.986;6.282;2022-07-26T05:07:07;3.92;;;1.20;;
51824;SDS011;37879;52.986;6.282;2022-07-26T05:09:33;4.75;;;0.73;;
51824;SDS011;37879;52.986;6.282;2022-07-26T05:11:59;2.03;;;0.70;;
51824;SDS011;37879;52.986;6.282;2022-07-26T05:14:26;3.22;;;0.60;;
51824;SDS011;37879;52.986;6.282;2022-07-26T05:16:52;4.65;;;0.70;;
51824;SDS011;37879;52.986;6.282;2022-07-26T05:19:18;5.95;;;0.88;;
51824;SDS011;37879;52.986;6.282;2022-07-26T05:21:44;5.20;;;1.13;;
51824;SDS011;37879;52.986;6.282;2022-07-26T05:24:10;3.13;;;0.85;;
51824;SDS011;37879;52.986;6.282;2022-07-26T05:26:36;5.40;;;1.30;;
51824;SDS011;37879;52.986;6.282;2022-07-26T05:29:03;3.80;;;0.85;;
51824;SDS011;37879;52.986;6.282;2022-07-26T05:31:29;3.00;;;0.80;;
51824;SDS011;37879;52.986;6.282;2022-07-26T05:33:55;2.30;;;0.90;;
51824;SDS011;37879;52.986;6.282;2022-07-26T05:36:21;3.28;;;0.90;;
51824;SDS011;37879;52.986;6.282;2022-07-26T05:38:47;3.08;;;0.63;;
51824;SDS011;37879;52.986;6.282;2022-07-26T05:41:13;2.85;;;0.50;;
51824;SDS011;37879;52.986;6.282;2022-07-26T05:43:39;2.97;;;0.60;;
51824;SDS011;37879;52.986;6.282;2022-07-26T05:46:05;5.25;;;0.88;;
51824;SDS011;37879;52.986;6.282;2022-07-26T05:48:32;4.18;;;0.80;;
51824;SDS011;37879;52.986;6.282;2022-07-26T05:50:58;3.40;;;1.05;;
51824;SDS011;37879;52.986;6.282;2022-07-26T05:53:25;3.20;;;0.80;;
51824;SDS011;37879;52.986;6.282;2022-07-26T05:55:51;3.42;;;0.82;;
51824;SDS011;37879;52.986;6.282;2022-07-26T05:58:17;2.22;;;1.20;;
51824;SDS011;37879;52.986;6.282;2022-07-26T06:00:43;6.18;;;1.05;;
51824;SDS011;37879;52.986;6.282;2022-07-26T06:03:09;6.63;;;0.90;;
51824;SDS011;37879;52.986;6.282;2022-07-26T06:05:57;5.30;;;0.93;;
51824;SDS011;37879;52.986;6.282;2022-07-26T06:08:24;3.67;;;0.80;;
51824;SDS011;37879;52.986;6.282;2022-07-26T06:10:50;4.97;;;1.23;;
51824;SDS011;37879;52.986;6.282;2022-07-26T06:13:16;5.47;;;1.00;;
51824;SDS011;37879;52.986;6.282;2022-07-26T06:15:43;6.30;;;0.85;;
51824;SDS011;37879;52.986;6.282;2022-07-26T06:18:09;3.70;;;0.90;;
51824;SDS011;37879;52.986;6.282;2022-07-26T06:20:39;2.25;;;1.10;;
51824;SDS011;37879;52.986;6.282;2022-07-26T06:23:05;4.22;;;0.60;;
51824;SDS011;37879;52.986;6.282;2022-07-26T06:25:31;5.57;;;1.00;;
51824;SDS011;37879;52.986;6.282;2022-07-26T06:27:57;5.22;;;1.08;;
51824;SDS011;37879;52.986;6.282;2022-07-26T06:30:23;6.72;;;1.35;;
51824;SDS011;37879;52.986;6.282;2022-07-26T06:32:50;3.88;;;0.95;;
51824;SDS011;37879;52.986;6.282;2022-07-26T06:35:16;4.75;;;0.70;;
51824;SDS011;37879;52.986;6.282;2022-07-26T06:37:42;4.97;;;1.50;;
51824;SDS011;37879;52.986;6.282;2022-07-26T06:40:08;5.10;;;1.60;;
51824;SDS011;37879;52.986;6.282;2022-07-26T06:42:35;4.15;;;0.80;;
51824;SDS011;37879;52.986;6.282;2022-07-26T06:45:01;4.13;;;1.13;;
51824;SDS011;37879;52.986;6.282;2022-07-26T06:47:28;6.68;;;1.05;;
51824;SDS011;37879;52.986;6.282;2022-07-26T06:49:54;5.07;;;1.27;;
51824;SDS011;37879;52.986;6.282;2022-07-26T06:52:20;3.97;;;1.00;;
51824;SDS011;37879;52.986;6.282;2022-07-26T06:54:47;3.05;;;1.20;;
51824;SDS011;37879;52.986;6.282;2022-07-26T06:57:13;4.35;;;0.77;;
51824;SDS011;37879;52.986;6.282;2022-07-26T06:59:39;4.97;;;0.90;;
51824;SDS011;37879;52.986;6.282;2022-07-26T07:02:05;4.38;;;0.38;;
51824;SDS011;37879;52.986;6.282;2022-07-26T07:04:32;2.25;;;0.57;;
51824;SDS011;37879;52.986;6.282;2022-07-26T07:06:58;4.85;;;1.20;;
51824;SDS011;37879;52.986;6.282;2022-07-26T07:09:27;1.42;;;0.45;;
51824;SDS011;37879;52.986;6.282;2022-07-26T07:11:53;5.85;;;0.90;;
51824;SDS011;37879;52.986;6.282;2022-07-26T07:14:19;3.35;;;0.63;;
51824;SDS011;37879;52.986;6.282;2022-07-26T07:16:45;3.00;;;0.70;;
51824;SDS011;37879;52.986;6.282;2022-07-26T07:19:11;5.55;;;1.05;;
51824;SDS011;37879;52.986;6.282;2022-07-26T07:21:37;2.30;;;1.00;;
51824;SDS011;37879;52.986;6.282;2022-07-26T07:24:04;4.93;;;0.95;;
51824;SDS011;37879;52.986;6.282;2022-07-26T07:26:31;7.00;;;0.80;;
51824;SDS011;37879;52.986;6.282;2022-07-26T07:28:57;3.45;;;1.05;;
51824;SDS011;37879;52.986;6.282;2022-07-26T07:31:23;2.22;;;0.40;;
51824;SDS011;37879;52.986;6.282;2022-07-26T07:33:50;5.20;;;0.80;;
51824;SDS011;37879;52.986;6.282;2022-07-26T07:36:16;6.65;;;1.20;;
51824;SDS011;37879;52.986;6.282;2022-07-26T07:38:46;2.53;;;0.77;;
51824;SDS011;37879;52.986;6.282;2022-07-26T07:41:12;4.63;;;0.80;;
51824;SDS011;37879;52.986;6.282;2022-07-26T07:43:38;7.15;;;1.40;;
51824;SDS011;37879;52.986;6.282;2022-07-26T07:46:04;5.25;;;1.45;;
51824;SDS011;37879;52.986;6.282;2022-07-26T07:48:30;5.80;;;0.90;;
51824;SDS011;37879;52.986;6.282;2022-07-26T07:50:57;3.55;;;0.88;;
51824;SDS011;37879;52.986;6.282;2022-07-26T07:53:24;5.60;;;1.10;;
51824;SDS011;37879;52.986;6.282;2022-07-26T07:55:50;6.00;;;0.90;;
51824;SDS011;37879;52.986;6.282;2022-07-26T07:58:18;3.38;;;0.85;;
51824;SDS011;37879;52.986;6.282;2022-07-26T08:00:45;7.20;;;1.15;;
51824;SDS011;37879;52.986;6.282;2022-07-26T08:03:11;7.60;;;1.00;;
51824;SDS011;37879;52.986;6.282;2022-07-26T08:05:37;5.28;;;0.88;;
51824;SDS011;37879;52.986;6.282;2022-07-26T08:08:03;5.60;;;1.23;;
51824;SDS011;37879;52.986;6.282;2022-07-26T08:10:30;3.70;;;0.85;;
51824;SDS011;37879;52.986;6.282;2022-07-26T08:12:56;3.50;;;1.00;;
51824;SDS011;37879;52.986;6.282;2022-07-26T08:15:22;4.30;;;0.57;;
51824;SDS011;37879;52.986;6.282;2022-07-26T08:17:49;3.65;;;0.50;;
51824;SDS011;37879;52.986;6.282;2022-07-26T08:20:15;3.90;;;1.20;;
51824;SDS011;37879;52.986;6.282;2022-07-26T08:22:41;4.00;;;0.47;;
51824;SDS011;37879;52.986;6.282;2022-07-26T08:25:07;4.22;;;1.23;;
51824;SDS011;37879;52.986;6.282;2022-07-26T08:27:34;4.55;;;0.85;;
51824;SDS011;37879;52.986;6.282;2022-07-26T08:30:00;6.82;;;1.38;;
51824;SDS011;37879;52.986;6.282;2022-07-26T08:32:26;5.30;;;1.38;;
51824;SDS011;37879;52.986;6.282;2022-07-26T08:34:52;7.00;;;0.90;;
51824;SDS011;37879;52.986;6.282;2022-07-26T08:37:18;3.42;;;1.10;;
51824;SDS011;37879;52.986;6.282;2022-07-26T08:39:45;4.38;;;1.33;;
51824;SDS011;37879;52.986;6.282;2022-07-26T08:42:15;7.65;;;1.33;;
51824;SDS011;37879;52.986;6.282;2022-07-26T08:44:42;4.55;;;0.88;;
51824;SDS011;37879;52.986;6.282;2022-07-26T08:47:10;4.85;;;1.73;;
51824;SDS011;37879;52.986;6.282;2022-07-26T08:49:36;4.65;;;1.05;;
51824;SDS011;37879;52.986;6.282;2022-07-26T08:52:02;7.85;;;1.13;;
51824;SDS011;37879;52.986;6.282;2022-07-26T08:54:29;3.75;;;1.23;;
51824;SDS011;37879;52.986;6.282;2022-07-26T08:56:55;5.43;;;1.00;;
51824;SDS011;37879;52.986;6.282;2022-07-26T08:59:22;5.63;;;1.42;;
51824;SDS011;37879;52.986;6.282;2022-07-26T09:01:52;5.70;;;1.27;;
51824;SDS011;37879;52.986;6.282;2022-07-26T09:04:19;5.38;;;1.38;;
51824;SDS011;37879;52.986;6.282;2022-07-26T09:09:24;9.85;;;1.48;;
51824;SDS011;37879;52.986;6.282;2022-07-26T09:11:50;4.38;;;0.90;;
51824;SDS011;37879;52.986;6.282;2022-07-26T09:14:16;7.40;;;1.25;;
51824;SDS011;37879;52.986;6.282;2022-07-26T09:16:54;4.00;;;1.70;;
51824;SDS011;37879;52.986;6.282;2022-07-26T09:19:21;10.35;;;1.38;;
51824;SDS011;37879;52.986;6.282;2022-07-26T09:21:49;4.38;;;1.17;;
51824;SDS011;37879;52.986;6.282;2022-07-26T09:24:38;5.63;;;1.20;;
51824;SDS011;37879;52.986;6.282;2022-07-26T09:27:02;6.00;;;1.40;;
51824;SDS011;37879;52.986;6.282;2022-07-26T09:29:29;10.50;;;2.38;;
51824;SDS011;37879;52.986;6.282;2022-07-26T09:32:12;12.35;;;2.17;;
51824;SDS011;37879;52.986;6.282;2022-07-26T09:34:46;10.35;;;2.13;;
51824;SDS011;37879;52.986;6.282;2022-07-26T09:37:13;7.93;;;1.88;;
51824;SDS011;37879;52.986;6.282;2022-07-26T09:39:52;8.68;;;2.13;;
51824;SDS011;37879;52.986;6.282;2022-07-26T09:42:18;7.88;;;3.13;;
51824;SDS011;37879;52.986;6.282;2022-07-26T09:44:45;8.57;;;2.20;;
51824;SDS011;37879;52.986;6.282;2022-07-26T09:47:11;9.55;;;2.33;;
51824;SDS011;37879;52.986;6.282;2022-07-26T09:49:37;6.65;;;1.80;;
51824;SDS011;37879;52.986;6.282;2022-07-26T09:52:04;7.50;;;2.38;;
51824;SDS011;37879;52.986;6.282;2022-07-26T09:54:38;5.05;;;1.58;;
51824;SDS011;37879;52.986;6.282;2022-07-26T09:57:05;7.72;;;2.25;;
51824;SDS011;37879;52.986;6.282;2022-07-26T09:59:31;9.45;;;1.50;;
51824;SDS011;37879;52.986;6.282;2022-07-26T10:01:58;8.57;;;1.73;;
51824;SDS011;37879;52.986;6.282;2022-07-26T10:04:24;5.30;;;1.50;;
51824;SDS011;37879;52.986;6.282;2022-07-26T10:06:51;8.32;;;1.80;;
51824;SDS011;37879;52.986;6.282;2022-07-26T10:09:18;7.35;;;1.63;;
51824;SDS011;37879;52.986;6.282;2022-07-26T10:11:48;8.20;;;1.60;;
51824;SDS011;37879;52.986;6.282;2022-07-26T10:14:34;7.05;;;1.73;;
51824;SDS011;37879;52.986;6.282;2022-07-26T10:19:47;5.70;;;1.92;;
51824;SDS011;37879;52.986;6.282;2022-07-26T10:32:42;9.80;;;1.65;;
51824;SDS011;37879;52.986;6.282;2022-07-26T10:38:02;3.50;;;1.27;;
51824;SDS011;37879;52.986;6.282;2022-07-26T10:40:28;7.32;;;2.17;;
51824;SDS011;37879;52.986;6.282;2022-07-26T10:45:36;6.07;;;1.15;;
51824;SDS011;37879;52.986;6.282;2022-07-26T10:48:13;4.57;;;1.15;;
51824;SDS011;37879;52.986;6.282;2022-07-26T10:50:40;7.38;;;1.60;;
51824;SDS011;37879;52.986;6.282;2022-07-26T10:53:07;5.53;;;1.80;;
51824;SDS011;37879;52.986;6.282;2022-07-26T10:55:54;6.10;;;1.30;;
51824;SDS011;37879;52.986;6.282;2022-07-26T10:58:21;6.75;;;1.70;;
51824;SDS011;37879;52.986;6.282;2022-07-26T11:00:54;6.18;;;1.10;;
51824;SDS011;37879;52.986;6.282;2022-07-26T11:03:21;6.13;;;1.48;;
51824;SDS011;37879;52.986;6.282;2022-07-26T11:05:47;4.10;;;1.13;;
51824;SDS011;37879;52.986;6.282;2022-07-26T11:08:14;5.65;;;1.55;;
51824;SDS011;37879;52.986;6.282;2022-07-26T11:10:41;11.98;;;1.58;;
51824;SDS011;37879;52.986;6.282;2022-07-26T11:15:37;3.00;;;0.90;;
51824;SDS011;37879;52.986;6.282;2022-07-26T11:23:18;5.15;;;0.98;;
51824;SDS011;37879;52.986;6.282;2022-07-26T11:25:57;3.95;;;0.80;;
51824;SDS011;37879;52.986;6.282;2022-07-26T11:28:23;4.55;;;1.20;;
51824;SDS011;37879;52.986;6.282;2022-07-26T11:30:58;5.45;;;1.50;;
51824;SDS011;37879;52.986;6.282;2022-07-26T11:33:37;3.92;;;0.75;;
51824;SDS011;37879;52.986;6.282;2022-07-26T11:36:04;6.55;;;1.30;;
51824;SDS011;37879;52.986;6.282;2022-07-26T11:38:50;5.30;;;1.17;;
51824;SDS011;37879;52.986;6.282;2022-07-26T11:41:20;3.63;;;0.90;;
51824;SDS011;37879;52.986;6.282;2022-07-26T11:43:47;2.45;;;0.95;;
51824;SDS011;37879;52.986;6.282;2022-07-26T11:46:14;4.32;;;0.95;;
51824;SDS011;37879;52.986;6.282;2022-07-26T11:48:44;7.13;;;1.33;;
51824;SDS011;37879;52.986;6.282;2022-07-26T11:51:11;4.30;;;0.88;;
51824;SDS011;37879;52.986;6.282;2022-07-26T11:53:38;5.57;;;1.65;;
51824;SDS011;37879;52.986;6.282;2022-07-26T11:56:11;3.35;;;0.82;;
51824;SDS011;37879;52.986;6.282;2022-07-26T11:58:38;4.10;;;1.33;;
51824;SDS011;37879;52.986;6.282;2022-07-26T12:01:05;4.40;;;1.15;;
51824;SDS011;37879;52.986;6.282;2022-07-26T12:03:37;1.85;;;0.90;;
51824;SDS011;37879;52.986;6.282;2022-07-26T12:06:05;3.88;;;0.80;;
51824;SDS011;37879;52.986;6.282;2022-07-26T12:09:04;7.50;;;1.40;;
51824;SDS011;37879;52.986;6.282;2022-07-26T12:11:34;7.43;;;1.58;;
51824;SDS011;37879;52.986;6.282;2022-07-26T12:14:01;5.82;;;1.17;;
51824;SDS011;37879;52.986;6.282;2022-07-26T12:21:39;3.95;;;1.20;;
51824;SDS011;37879;52.986;6.282;2022-07-26T12:24:06;4.00;;;0.90;;
51824;SDS011;37879;52.986;6.282;2022-07-26T12:26:32;3.88;;;0.70;;
51824;SDS011;37879;52.986;6.282;2022-07-26T12:28:59;3.45;;;1.17;;
51824;SDS011;37879;52.986;6.282;2022-07-26T12:31:45;4.90;;;0.90;;
51824;SDS011;37879;52.986;6.282;2022-07-26T12:34:18;5.10;;;0.80;;
51824;SDS011;37879;52.986;6.282;2022-07-26T12:36:44;2.70;;;0.98;;
51824;SDS011;37879;52.986;6.282;2022-07-26T12:39:18;4.82;;;1.55;;
51824;SDS011;37879;52.986;6.282;2022-07-26T12:41:45;5.13;;;0.97;;
51824;SDS011;37879;52.986;6.282;2022-07-26T12:44:14;3.92;;;1.27;;
51824;SDS011;37879;52.986;6.282;2022-07-26T12:46:41;5.80;;;1.00;;
51824;SDS011;37879;52.986;6.282;2022-07-26T12:49:10;5.35;;;0.90;;
51824;SDS011;37879;52.986;6.282;2022-07-26T12:51:36;4.00;;;1.15;;
51824;SDS011;37879;52.986;6.282;2022-07-26T12:54:03;5.97;;;1.52;;
51824;SDS011;37879;52.986;6.282;2022-07-26T12:56:30;8.00;;;1.42;;
51824;SDS011;37879;52.986;6.282;2022-07-26T12:58:57;2.25;;;0.38;;
51824;SDS011;37879;52.986;6.282;2022-07-26T13:01:27;2.30;;;0.73;;
51824;SDS011;37879;52.986;6.282;2022-07-26T13:03:53;3.25;;;0.90;;
51824;SDS011;37879;52.986;6.282;2022-07-26T13:06:20;5.00;;;1.02;;
51824;SDS011;37879;52.986;6.282;2022-07-26T13:08:46;5.28;;;1.50;;
51824;SDS011;37879;52.986;6.282;2022-07-26T13:11:12;3.78;;;0.80;;
51824;SDS011;37879;52.986;6.282;2022-07-26T13:13:38;3.20;;;0.82;;
51824;SDS011;37879;52.986;6.282;2022-07-26T13:16:04;4.47;;;1.05;;
51824;SDS011;37879;52.986;6.282;2022-07-26T13:18:30;4.75;;;1.00;;
51824;SDS011;37879;52.986;6.282;2022-07-26T13:20:57;3.97;;;1.10;;
51824;SDS011;37879;52.986;6.282;2022-07-26T13:23:23;4.63;;;1.00;;
51824;SDS011;37879;52.986;6.282;2022-07-26T13:25:49;3.05;;;0.90;;
51824;SDS011;37879;52.986;6.282;2022-07-26T13:28:15;9.95;;;1.23;;
51824;SDS011;37879;52.986;6.282;2022-07-26T13:30:41;7.70;;;1.15;;
51824;SDS011;37879;52.986;6.282;2022-07-26T13:33:08;6.65;;;1.10;;
51824;SDS011;37879;52.986;6.282;2022-07-26T13:35:34;5.55;;;0.80;;
51824;SDS011;37879;52.986;6.282;2022-07-26T13:38:03;5.18;;;0.90;;
51824;SDS011;37879;52.986;6.282;2022-07-26T13:40:29;4.97;;;1.48;;
51824;SDS011;37879;52.986;6.282;2022-07-26T13:42:56;4.13;;;1.27;;
51824;SDS011;37879;52.986;6.282;2022-07-26T13:45:22;3.15;;;0.80;;
51824;SDS011;37879;52.986;6.282;2022-07-26T13:47:48;4.75;;;0.85;;
51824;SDS011;37879;52.986;6.282;2022-07-26T13:50:14;5.63;;;1.30;;
51824;SDS011;37879;52.986;6.282;2022-07-26T13:52:40;6.65;;;1.52;;
51824;SDS011;37879;52.986;6.282;2022-07-26T13:55:06;4.43;;;1.20;;
51824;SDS011;37879;52.986;6.282;2022-07-26T13:57:32;3.03;;;1.10;;
51824;SDS011;37879;52.986;6.282;2022-07-26T13:59:58;3.05;;;0.98;;
51824;SDS011;37879;52.986;6.282;2022-07-26T14:02:25;3.88;;;0.98;;
51824;SDS011;37879;52.986;6.282;2022-07-26T14:04:51;4.63;;;1.10;;
51824;SDS011;37879;52.986;6.282;2022-07-26T14:07:17;5.63;;;1.00;;
51824;SDS011;37879;52.986;6.282;2022-07-26T14:09:43;2.00;;;0.60;;
51824;SDS011;37879;52.986;6.282;2022-07-26T14:12:11;5.28;;;0.80;;
51824;SDS011;37879;52.986;6.282;2022-07-26T14:14:38;4.40;;;1.23;;
51824;SDS011;37879;52.986;6.282;2022-07-26T14:17:04;5.20;;;1.00;;
51824;SDS011;37879;52.986;6.282;2022-07-26T14:19:30;2.45;;;1.10;;
51824;SDS011;37879;52.986;6.282;2022-07-26T14:21:56;10.75;;;0.95;;
51824;SDS011;37879;52.986;6.282;2022-07-26T14:24:22;4.93;;;0.90;;
51824;SDS011;37879;52.986;6.282;2022-07-26T14:26:49;5.68;;;1.02;;
51824;SDS011;37879;52.986;6.282;2022-07-26T14:29:15;2.92;;;0.82;;
51824;SDS011;37879;52.986;6.282;2022-07-26T14:31:41;4.32;;;0.70;;
51824;SDS011;37879;52.986;6.282;2022-07-26T14:34:08;1.77;;;0.50;;
51824;SDS011;37879;52.986;6.282;2022-07-26T14:36:34;2.90;;;0.82;;
51824;SDS011;37879;52.986;6.282;2022-07-26T14:39:01;2.95;;;0.82;;
51824;SDS011;37879;52.986;6.282;2022-07-26T14:41:27;9.82;;;0.70;;
51824;SDS011;37879;52.986;6.282;2022-07-26T14:43:53;1.88;;;0.70;;
51824;SDS011;37879;52.986;6.282;2022-07-26T14:46:19;4.63;;;1.05;;
51824;SDS011;37879;52.986;6.282;2022-07-26T14:48:45;2.15;;;0.45;;
51824;SDS011;37879;52.986;6.282;2022-07-26T14:51:12;3.53;;;1.13;;
51824;SDS011;37879;52.986;6.282;2022-07-26T14:53:38;7.20;;;1.33;;
51824;SDS011;37879;52.986;6.282;2022-07-26T14:56:04;4.38;;;1.00;;
51824;SDS011;37879;52.986;6.282;2022-07-26T14:58:30;3.13;;;0.88;;
51824;SDS011;37879;52.986;6.282;2022-07-26T15:00:56;4.00;;;1.13;;
51824;SDS011;37879;52.986;6.282;2022-07-26T15:03:22;8.27;;;1.60;;
51824;SDS011;37879;52.986;6.282;2022-07-26T15:05:49;2.30;;;0.60;;
51824;SDS011;37879;52.986;6.282;2022-07-26T15:08:15;2.85;;;1.02;;
51824;SDS011;37879;52.986;6.282;2022-07-26T15:10:41;3.15;;;0.70;;
51824;SDS011;37879;52.986;6.282;2022-07-26T15:13:07;5.05;;;0.70;;
51824;SDS011;37879;52.986;6.282;2022-07-26T15:15:34;2.35;;;0.70;;
51824;SDS011;37879;52.986;6.282;2022-07-26T15:18:00;2.70;;;0.52;;
51824;SDS011;37879;52.986;6.282;2022-07-26T15:20:29;3.05;;;0.70;;